sensor_id;sensor_type;location;lat;lon;timestamp;temperature;humidity
11426;DHT22;5769;47.998;7.788;2023-07-31T00:01:05;22.60;78.80
11426;DHT22;5769;47.998;7.788;2023-07-31T00:03:31;22.70;78.90
11426;DHT22;5769;47.998;7.788;2023-07-31T00:05:58;22.60;78.90
11426;DHT22;5769;47.998;7.788;2023-07-31T00:08:26;22.70;78.90
11426;DHT22;5769;47.998;7.788;2023-07-31T00:10:53;22.70;78.90
11426;DHT22;5769;47.998;7.788;2023-07-31T00:13:20;22.60;78.90
11426;DHT22;5769;47.998;7.788;2023-07-31T00:15:46;22.50;78.80
11426;DHT22;5769;47.998;7.788;2023-07-31T00:18:13;22.70;78.90
11426;DHT22;5769;47.998;7.788;2023-07-31T00:20:40;22.50;78.90
11426;DHT22;5769;47.998;7.788;2023-07-31T00:23:07;22.50;78.70
11426;DHT22;5769;47.998;7.788;2023-07-31T00:25:35;22.50;78.70
11426;DHT22;5769;47.998;7.788;2023-07-31T00:28:01;22.50;78.60
11426;DHT22;5769;47.998;7.788;2023-07-31T00:30:28;22.60;78.70
11426;DHT22;5769;47.998;7.788;2023-07-31T00:32:55;22.50;78.50
11426;DHT22;5769;47.998;7.788;2023-07-31T00:35:22;22.50;78.50
11426;DHT22;5769;47.998;7.788;2023-07-31T00:37:48;22.70;78.50
11426;DHT22;5769;47.998;7.788;2023-07-31T00:40:15;22.60;78.50
11426;DHT22;5769;47.998;7.788;2023-07-31T00:42:43;22.50;78.40
11426;DHT22;5769;47.998;7.788;2023-07-31T00:45:10;22.70;78.50
11426;DHT22;5769;47.998;7.788;2023-07-31T00:47:36;22.60;78.40
11426;DHT22;5769;47.998;7.788;2023-07-31T00:50:04;22.50;78.40
11426;DHT22;5769;47.998;7.788;2023-07-31T00:52:31;22.60;78.30
11426;DHT22;5769;47.998;7.788;2023-07-31T00:54:58;22.50;78.20
11426;DHT22;5769;47.998;7.788;2023-07-31T00:57:25;22.60;77.60
11426;DHT22;5769;47.998;7.788;2023-07-31T00:59:53;22.50;77.70
11426;DHT22;5769;47.998;7.788;2023-07-31T01:02:20;22.60;77.20
11426;DHT22;5769;47.998;7.788;2023-07-31T01:04:47;22.50;77.20
11426;DHT22;5769;47.998;7.788;2023-07-31T01:07:19;22.60;77.00
11426;DHT22;5769;47.998;7.788;2023-07-31T01:09:53;22.50;76.90
11426;DHT22;5769;47.998;7.788;2023-07-31T01:12:24;22.60;77.10
11426;DHT22;5769;47.998;7.788;2023-07-31T01:14:52;22.50;77.00
11426;DHT22;5769;47.998;7.788;2023-07-31T01:17:28;22.50;76.60
11426;DHT22;5769;47.998;7.788;2023-07-31T01:19:56;22.50;76.70
11426;DHT22;5769;47.998;7.788;2023-07-31T01:22:37;22.50;76.10
11426;DHT22;5769;47.998;7.788;2023-07-31T01:25:16;22.50;76.30
11426;DHT22;5769;47.998;7.788;2023-07-31T01:27:55;22.50;76.30
11426;DHT22;5769;47.998;7.788;2023-07-31T01:30:28;22.50;76.30
11426;DHT22;5769;47.998;7.788;2023-07-31T01:32:59;22.60;76.40
11426;DHT22;5769;47.998;7.788;2023-07-31T01:35:28;22.40;76.10
11426;DHT22;5769;47.998;7.788;2023-07-31T01:37:54;22.40;76.10
11426;DHT22;5769;47.998;7.788;2023-07-31T01:40:21;22.60;76.10
11426;DHT22;5769;47.998;7.788;2023-07-31T01:42:49;22.40;75.80
11426;DHT22;5769;47.998;7.788;2023-07-31T01:45:16;22.60;75.90
11426;DHT22;5769;47.998;7.788;2023-07-31T01:47:43;22.50;75.70
11426;DHT22;5769;47.998;7.788;2023-07-31T01:50:10;22.40;75.40
11426;DHT22;5769;47.998;7.788;2023-07-31T01:52:36;22.60;75.80
11426;DHT22;5769;47.998;7.788;2023-07-31T01:55:04;22.40;75.20
11426;DHT22;5769;47.998;7.788;2023-07-31T01:57:30;22.40;75.50
11426;DHT22;5769;47.998;7.788;2023-07-31T01:59:58;22.60;75.70
11426;DHT22;5769;47.998;7.788;2023-07-31T02:02:25;22.40;75.40
11426;DHT22;5769;47.998;7.788;2023-07-31T02:04:52;22.40;75.20
11426;DHT22;5769;47.998;7.788;2023-07-31T02:07:18;22.60;75.00
11426;DHT22;5769;47.998;7.788;2023-07-31T02:09:45;22.60;75.30
11426;DHT22;5769;47.998;7.788;2023-07-31T02:12:13;22.40;74.80
11426;DHT22;5769;47.998;7.788;2023-07-31T02:14:40;22.50;74.50
11426;DHT22;5769;47.998;7.788;2023-07-31T02:17:08;22.60;74.50
11426;DHT22;5769;47.998;7.788;2023-07-31T02:19:35;22.60;74.50
11426;DHT22;5769;47.998;7.788;2023-07-31T02:22:02;22.40;74.40
11426;DHT22;5769;47.998;7.788;2023-07-31T02:24:29;22.40;74.30
11426;DHT22;5769;47.998;7.788;2023-07-31T02:26:57;22.40;74.20
11426;DHT22;5769;47.998;7.788;2023-07-31T02:29:24;22.40;74.10
11426;DHT22;5769;47.998;7.788;2023-07-31T02:31:50;22.50;74.30
11426;DHT22;5769;47.998;7.788;2023-07-31T02:34:18;22.40;74.00
11426;DHT22;5769;47.998;7.788;2023-07-31T02:36:45;22.50;74.10
11426;DHT22;5769;47.998;7.788;2023-07-31T02:39:12;22.40;73.80
11426;DHT22;5769;47.998;7.788;2023-07-31T02:41:38;22.50;73.70
11426;DHT22;5769;47.998;7.788;2023-07-31T02:44:05;22.60;73.80
11426;DHT22;5769;47.998;7.788;2023-07-31T02:46:32;22.40;73.80
11426;DHT22;5769;47.998;7.788;2023-07-31T02:48:58;22.50;73.30
11426;DHT22;5769;47.998;7.788;2023-07-31T02:51:26;22.50;73.60
11426;DHT22;5769;47.998;7.788;2023-07-31T02:53:53;22.40;73.40
11426;DHT22;5769;47.998;7.788;2023-07-31T02:56:20;22.40;73.60
11426;DHT22;5769;47.998;7.788;2023-07-31T02:58:46;22.60;73.50
11426;DHT22;5769;47.998;7.788;2023-07-31T03:01:13;22.40;73.40
11426;DHT22;5769;47.998;7.788;2023-07-31T03:03:41;22.40;73.10
11426;DHT22;5769;47.998;7.788;2023-07-31T03:06:08;22.40;73.70
11426;DHT22;5769;47.998;7.788;2023-07-31T03:08:36;22.40;73.20
11426;DHT22;5769;47.998;7.788;2023-07-31T03:11:03;22.40;73.40
11426;DHT22;5769;47.998;7.788;2023-07-31T03:13:29;22.50;72.90
11426;DHT22;5769;47.998;7.788;2023-07-31T03:15:56;22.40;73.30
11426;DHT22;5769;47.998;7.788;2023-07-31T03:18:23;22.40;72.80
11426;DHT22;5769;47.998;7.788;2023-07-31T03:20:50;22.40;73.30
11426;DHT22;5769;47.998;7.788;2023-07-31T03:23:16;22.50;72.70
11426;DHT22;5769;47.998;7.788;2023-07-31T03:25:56;22.50;72.80
11426;DHT22;5769;47.998;7.788;2023-07-31T03:28:24;22.50;72.30
11426;DHT22;5769;47.998;7.788;2023-07-31T03:30:51;22.40;72.20
11426;DHT22;5769;47.998;7.788;2023-07-31T03:33:18;22.50;72.40
11426;DHT22;5769;47.998;7.788;2023-07-31T03:35:45;22.40;72.40
11426;DHT22;5769;47.998;7.788;2023-07-31T03:38:12;22.40;72.60
11426;DHT22;5769;47.998;7.788;2023-07-31T03:40:39;22.50;72.20
11426;DHT22;5769;47.998;7.788;2023-07-31T03:43:07;22.40;72.20
11426;DHT22;5769;47.998;7.788;2023-07-31T03:45:34;22.50;73.30
11426;DHT22;5769;47.998;7.788;2023-07-31T03:48:01;22.50;73.90
11426;DHT22;5769;47.998;7.788;2023-07-31T03:50:27;22.40;72.80
11426;DHT22;5769;47.998;7.788;2023-07-31T03:52:54;22.40;72.60
11426;DHT22;5769;47.998;7.788;2023-07-31T03:55:21;22.50;72.70
11426;DHT22;5769;47.998;7.788;2023-07-31T03:57:48;22.40;71.50
11426;DHT22;5769;47.998;7.788;2023-07-31T04:00:16;22.50;72.60
11426;DHT22;5769;47.998;7.788;2023-07-31T04:02:43;22.30;72.00
11426;DHT22;5769;47.998;7.788;2023-07-31T04:05:09;22.40;72.20
11426;DHT22;5769;47.998;7.788;2023-07-31T04:07:37;22.30;72.10
11426;DHT22;5769;47.998;7.788;2023-07-31T04:10:04;22.30;72.50
11426;DHT22;5769;47.998;7.788;2023-07-31T04:12:31;22.40;72.70
11426;DHT22;5769;47.998;7.788;2023-07-31T04:14:57;22.30;73.00
11426;DHT22;5769;47.998;7.788;2023-07-31T04:17:26;22.40;72.50
11426;DHT22;5769;47.998;7.788;2023-07-31T04:19:52;22.40;72.20
11426;DHT22;5769;47.998;7.788;2023-07-31T04:22:19;22.50;72.60
11426;DHT22;5769;47.998;7.788;2023-07-31T04:24:46;22.50;72.70
11426;DHT22;5769;47.998;7.788;2023-07-31T04:27:13;22.40;72.90
11426;DHT22;5769;47.998;7.788;2023-07-31T04:29:39;22.30;72.20
11426;DHT22;5769;47.998;7.788;2023-07-31T04:32:08;22.40;72.90
11426;DHT22;5769;47.998;7.788;2023-07-31T04:34:36;22.30;73.10
11426;DHT22;5769;47.998;7.788;2023-07-31T04:37:03;22.50;69.90
11426;DHT22;5769;47.998;7.788;2023-07-31T04:39:30;22.50;69.60
11426;DHT22;5769;47.998;7.788;2023-07-31T04:41:56;22.40;70.00
11426;DHT22;5769;47.998;7.788;2023-07-31T04:44:23;22.40;69.80
11426;DHT22;5769;47.998;7.788;2023-07-31T04:46:50;22.30;69.60
11426;DHT22;5769;47.998;7.788;2023-07-31T04:49:17;22.30;69.30
11426;DHT22;5769;47.998;7.788;2023-07-31T04:51:49;22.40;69.70
11426;DHT22;5769;47.998;7.788;2023-07-31T04:54:15;22.40;69.20
11426;DHT22;5769;47.998;7.788;2023-07-31T04:56:42;22.50;69.60
11426;DHT22;5769;47.998;7.788;2023-07-31T04:59:09;22.50;69.20
11426;DHT22;5769;47.998;7.788;2023-07-31T05:01:36;22.30;68.70
11426;DHT22;5769;47.998;7.788;2023-07-31T05:04:02;22.40;69.10
11426;DHT22;5769;47.998;7.788;2023-07-31T05:06:29;22.40;68.60
11426;DHT22;5769;47.998;7.788;2023-07-31T05:08:57;22.40;69.40
11426;DHT22;5769;47.998;7.788;2023-07-31T05:11:24;22.30;69.10
11426;DHT22;5769;47.998;7.788;2023-07-31T05:13:51;22.50;69.30
11426;DHT22;5769;47.998;7.788;2023-07-31T05:16:18;22.40;69.40
11426;DHT22;5769;47.998;7.788;2023-07-31T05:18:44;22.30;68.90
11426;DHT22;5769;47.998;7.788;2023-07-31T05:21:11;22.30;68.90
11426;DHT22;5769;47.998;7.788;2023-07-31T05:23:38;22.40;69.30
11426;DHT22;5769;47.998;7.788;2023-07-31T05:26:06;22.40;69.60
11426;DHT22;5769;47.998;7.788;2023-07-31T05:28:35;22.30;68.30
11426;DHT22;5769;47.998;7.788;2023-07-31T05:31:02;22.40;68.20
11426;DHT22;5769;47.998;7.788;2023-07-31T05:33:29;22.50;68.10
11426;DHT22;5769;47.998;7.788;2023-07-31T05:35:56;22.30;67.90
11426;DHT22;5769;47.998;7.788;2023-07-31T05:38:23;22.30;67.40
11426;DHT22;5769;47.998;7.788;2023-07-31T05:40:50;22.30;67.10
11426;DHT22;5769;47.998;7.788;2023-07-31T05:43:18;22.30;67.80
11426;DHT22;5769;47.998;7.788;2023-07-31T05:45:44;22.50;67.30
11426;DHT22;5769;47.998;7.788;2023-07-31T05:48:11;22.30;67.00
11426;DHT22;5769;47.998;7.788;2023-07-31T05:50:38;22.30;66.90
11426;DHT22;5769;47.998;7.788;2023-07-31T05:53:05;22.40;66.30
11426;DHT22;5769;47.998;7.788;2023-07-31T05:55:33;22.30;66.30
11426;DHT22;5769;47.998;7.788;2023-07-31T05:58:00;22.30;66.10
11426;DHT22;5769;47.998;7.788;2023-07-31T06:00:28;22.30;66.40
11426;DHT22;5769;47.998;7.788;2023-07-31T06:02:55;22.40;66.40
11426;DHT22;5769;47.998;7.788;2023-07-31T06:05:21;22.30;65.70
11426;DHT22;5769;47.998;7.788;2023-07-31T06:07:48;22.40;66.10
11426;DHT22;5769;47.998;7.788;2023-07-31T06:10:15;22.30;65.90
11426;DHT22;5769;47.998;7.788;2023-07-31T06:12:42;22.30;65.60
11426;DHT22;5769;47.998;7.788;2023-07-31T06:15:09;22.30;65.60
11426;DHT22;5769;47.998;7.788;2023-07-31T06:17:40;22.30;65.60
11426;DHT22;5769;47.998;7.788;2023-07-31T06:20:08;22.40;65.20
11426;DHT22;5769;47.998;7.788;2023-07-31T06:22:35;22.30;65.50
11426;DHT22;5769;47.998;7.788;2023-07-31T06:25:02;22.40;66.40
11426;DHT22;5769;47.998;7.788;2023-07-31T06:27:29;22.30;66.10
11426;DHT22;5769;47.998;7.788;2023-07-31T06:29:55;22.30;66.00
11426;DHT22;5769;47.998;7.788;2023-07-31T06:32:23;22.30;65.60
11426;DHT22;5769;47.998;7.788;2023-07-31T06:34:51;22.30;65.40
11426;DHT22;5769;47.998;7.788;2023-07-31T06:37:18;22.30;65.40
11426;DHT22;5769;47.998;7.788;2023-07-31T06:39:44;22.20;65.60
11426;DHT22;5769;47.998;7.788;2023-07-31T06:42:11;22.30;66.60
11426;DHT22;5769;47.998;7.788;2023-07-31T06:44:38;22.20;65.90
11426;DHT22;5769;47.998;7.788;2023-07-31T06:47:05;22.40;66.80
11426;DHT22;5769;47.998;7.788;2023-07-31T06:49:32;22.30;65.80
11426;DHT22;5769;47.998;7.788;2023-07-31T06:52:00;22.30;66.10
11426;DHT22;5769;47.998;7.788;2023-07-31T06:54:27;22.20;66.40
11426;DHT22;5769;47.998;7.788;2023-07-31T06:56:53;22.30;66.00
11426;DHT22;5769;47.998;7.788;2023-07-31T06:59:20;22.20;66.10
11426;DHT22;5769;47.998;7.788;2023-07-31T07:01:47;22.20;65.60
11426;DHT22;5769;47.998;7.788;2023-07-31T07:04:13;22.20;65.40
11426;DHT22;5769;47.998;7.788;2023-07-31T07:06:40;22.20;65.20
11426;DHT22;5769;47.998;7.788;2023-07-31T07:09:08;22.30;65.40
11426;DHT22;5769;47.998;7.788;2023-07-31T07:11:35;22.40;65.60
11426;DHT22;5769;47.998;7.788;2023-07-31T07:14:02;22.20;65.00
11426;DHT22;5769;47.998;7.788;2023-07-31T07:16:29;22.20;65.60
11426;DHT22;5769;47.998;7.788;2023-07-31T07:18:56;22.40;65.50
11426;DHT22;5769;47.998;7.788;2023-07-31T07:21:23;22.20;65.80
11426;DHT22;5769;47.998;7.788;2023-07-31T07:23:49;22.30;65.20
11426;DHT22;5769;47.998;7.788;2023-07-31T07:26:17;22.40;65.30
11426;DHT22;5769;47.998;7.788;2023-07-31T07:28:44;22.30;66.30
11426;DHT22;5769;47.998;7.788;2023-07-31T07:31:11;22.20;66.50
11426;DHT22;5769;47.998;7.788;2023-07-31T07:33:37;22.40;66.90
11426;DHT22;5769;47.998;7.788;2023-07-31T07:36:04;22.30;67.80
11426;DHT22;5769;47.998;7.788;2023-07-31T07:38:35;22.30;68.50
11426;DHT22;5769;47.998;7.788;2023-07-31T07:41:01;22.30;69.20
11426;DHT22;5769;47.998;7.788;2023-07-31T07:43:29;22.30;69.70
11426;DHT22;5769;47.998;7.788;2023-07-31T07:45:56;22.40;70.60
11426;DHT22;5769;47.998;7.788;2023-07-31T07:48:22;22.30;70.40
11426;DHT22;5769;47.998;7.788;2023-07-31T07:50:50;22.40;70.90
11426;DHT22;5769;47.998;7.788;2023-07-31T07:53:17;22.40;70.20
11426;DHT22;5769;47.998;7.788;2023-07-31T07:55:43;22.40;70.30
11426;DHT22;5769;47.998;7.788;2023-07-31T07:58:10;22.40;70.40
11426;DHT22;5769;47.998;7.788;2023-07-31T08:00:38;22.30;69.60
11426;DHT22;5769;47.998;7.788;2023-07-31T08:03:06;22.40;70.10
11426;DHT22;5769;47.998;7.788;2023-07-31T08:05:32;22.30;70.00
11426;DHT22;5769;47.998;7.788;2023-07-31T08:08:00;22.30;69.60
11426;DHT22;5769;47.998;7.788;2023-07-31T08:10:27;22.40;69.60
11426;DHT22;5769;47.998;7.788;2023-07-31T08:12:53;22.30;69.40
11426;DHT22;5769;47.998;7.788;2023-07-31T08:15:20;22.30;69.60
11426;DHT22;5769;47.998;7.788;2023-07-31T08:17:48;22.30;69.90
11426;DHT22;5769;47.998;7.788;2023-07-31T08:20:15;22.20;69.40
11426;DHT22;5769;47.998;7.788;2023-07-31T08:22:42;22.40;69.80
11426;DHT22;5769;47.998;7.788;2023-07-31T08:25:09;22.40;69.30
11426;DHT22;5769;47.998;7.788;2023-07-31T08:27:36;22.40;69.40
11426;DHT22;5769;47.998;7.788;2023-07-31T08:30:03;22.30;69.60
11426;DHT22;5769;47.998;7.788;2023-07-31T08:32:30;22.40;69.80
11426;DHT22;5769;47.998;7.788;2023-07-31T08:34:58;22.40;69.40
11426;DHT22;5769;47.998;7.788;2023-07-31T08:37:24;22.40;69.40
11426;DHT22;5769;47.998;7.788;2023-07-31T08:39:51;22.30;69.00
11426;DHT22;5769;47.998;7.788;2023-07-31T08:42:19;22.40;69.00
11426;DHT22;5769;47.998;7.788;2023-07-31T08:44:46;22.40;69.00
11426;DHT22;5769;47.998;7.788;2023-07-31T08:47:14;22.40;69.40
11426;DHT22;5769;47.998;7.788;2023-07-31T08:49:42;22.40;69.10
11426;DHT22;5769;47.998;7.788;2023-07-31T08:52:11;22.50;69.10
11426;DHT22;5769;47.998;7.788;2023-07-31T08:54:38;22.50;68.90
11426;DHT22;5769;47.998;7.788;2023-07-31T08:57:06;22.60;68.50
11426;DHT22;5769;47.998;7.788;2023-07-31T08:59:34;22.50;68.90
11426;DHT22;5769;47.998;7.788;2023-07-31T09:02:05;22.60;69.20
11426;DHT22;5769;47.998;7.788;2023-07-31T09:04:32;22.50;69.20
11426;DHT22;5769;47.998;7.788;2023-07-31T09:07:00;22.60;69.40
11426;DHT22;5769;47.998;7.788;2023-07-31T09:09:30;22.70;69.40
11426;DHT22;5769;47.998;7.788;2023-07-31T09:11:57;22.50;68.60
11426;DHT22;5769;47.998;7.788;2023-07-31T09:14:25;22.70;67.70
11426;DHT22;5769;47.998;7.788;2023-07-31T09:16:53;22.70;68.00
11426;DHT22;5769;47.998;7.788;2023-07-31T09:19:27;22.70;66.80
11426;DHT22;5769;47.998;7.788;2023-07-31T09:21:54;22.80;67.60
11426;DHT22;5769;47.998;7.788;2023-07-31T09:24:28;22.80;68.20
11426;DHT22;5769;47.998;7.788;2023-07-31T09:26:58;22.70;68.40
11426;DHT22;5769;47.998;7.788;2023-07-31T09:29:25;22.80;68.50
11426;DHT22;5769;47.998;7.788;2023-07-31T09:31:53;22.70;68.50
11426;DHT22;5769;47.998;7.788;2023-07-31T09:34:28;22.70;68.60
11426;DHT22;5769;47.998;7.788;2023-07-31T09:36:56;22.70;68.70
11426;DHT22;5769;47.998;7.788;2023-07-31T09:39:22;22.70;68.70
11426;DHT22;5769;47.998;7.788;2023-07-31T09:41:54;22.70;69.00
11426;DHT22;5769;47.998;7.788;2023-07-31T09:44:37;22.80;68.40
11426;DHT22;5769;47.998;7.788;2023-07-31T09:47:05;22.90;67.80
11426;DHT22;5769;47.998;7.788;2023-07-31T09:49:35;22.80;68.00
11426;DHT22;5769;47.998;7.788;2023-07-31T09:52:01;22.80;68.20
11426;DHT22;5769;47.998;7.788;2023-07-31T09:54:38;22.80;68.50
11426;DHT22;5769;47.998;7.788;2023-07-31T09:57:05;22.90;69.10
11426;DHT22;5769;47.998;7.788;2023-07-31T09:59:33;22.80;69.30
11426;DHT22;5769;47.998;7.788;2023-07-31T10:02:00;22.90;69.70
11426;DHT22;5769;47.998;7.788;2023-07-31T10:04:28;22.90;69.90
11426;DHT22;5769;47.998;7.788;2023-07-31T10:06:56;23.00;70.10
11426;DHT22;5769;47.998;7.788;2023-07-31T10:09:26;22.80;70.20
11426;DHT22;5769;47.998;7.788;2023-07-31T10:12:00;22.90;70.40
11426;DHT22;5769;47.998;7.788;2023-07-31T10:14:27;22.80;70.50
11426;DHT22;5769;47.998;7.788;2023-07-31T10:16:56;22.80;70.50
11426;DHT22;5769;47.998;7.788;2023-07-31T10:19:23;22.80;69.60
11426;DHT22;5769;47.998;7.788;2023-07-31T10:21:51;23.10;69.00
11426;DHT22;5769;47.998;7.788;2023-07-31T10:24:18;23.00;69.30
11426;DHT22;5769;47.998;7.788;2023-07-31T10:26:47;23.00;69.20
11426;DHT22;5769;47.998;7.788;2023-07-31T10:29:15;23.10;69.40
11426;DHT22;5769;47.998;7.788;2023-07-31T10:31:43;23.00;69.70
11426;DHT22;5769;47.998;7.788;2023-07-31T10:34:12;22.90;69.10
11426;DHT22;5769;47.998;7.788;2023-07-31T10:36:39;22.90;69.00
11426;DHT22;5769;47.998;7.788;2023-07-31T10:39:35;23.00;68.30
11426;DHT22;5769;47.998;7.788;2023-07-31T10:42:10;23.00;68.80
11426;DHT22;5769;47.998;7.788;2023-07-31T10:44:37;23.00;68.80
11426;DHT22;5769;47.998;7.788;2023-07-31T10:47:04;23.00;68.70
11426;DHT22;5769;47.998;7.788;2023-07-31T10:49:34;22.90;68.80
11426;DHT22;5769;47.998;7.788;2023-07-31T10:52:03;23.00;68.70
11426;DHT22;5769;47.998;7.788;2023-07-31T10:54:30;23.00;68.80
11426;DHT22;5769;47.998;7.788;2023-07-31T10:56:57;23.00;68.50
11426;DHT22;5769;47.998;7.788;2023-07-31T10:59:26;22.90;68.80
11426;DHT22;5769;47.998;7.788;2023-07-31T11:01:55;23.00;68.30
11426;DHT22;5769;47.998;7.788;2023-07-31T11:04:23;23.00;68.40
11426;DHT22;5769;47.998;7.788;2023-07-31T11:06:58;23.00;68.00
11426;DHT22;5769;47.998;7.788;2023-07-31T11:09:28;23.20;67.80
11426;DHT22;5769;47.998;7.788;2023-07-31T11:11:55;23.10;68.00
11426;DHT22;5769;47.998;7.788;2023-07-31T11:14:22;23.00;68.30
11426;DHT22;5769;47.998;7.788;2023-07-31T11:16:50;23.10;68.50
11426;DHT22;5769;47.998;7.788;2023-07-31T11:19:21;22.90;68.40
11426;DHT22;5769;47.998;7.788;2023-07-31T11:21:49;22.90;68.30
11426;DHT22;5769;47.998;7.788;2023-07-31T11:24:17;23.00;68.30
11426;DHT22;5769;47.998;7.788;2023-07-31T11:26:49;22.90;67.80
11426;DHT22;5769;47.998;7.788;2023-07-31T11:29:15;23.10;68.10
11426;DHT22;5769;47.998;7.788;2023-07-31T11:31:42;22.90;68.00
11426;DHT22;5769;47.998;7.788;2023-07-31T11:34:09;22.90;68.20
11426;DHT22;5769;47.998;7.788;2023-07-31T11:36:36;22.90;68.10
11426;DHT22;5769;47.998;7.788;2023-07-31T11:39:06;23.10;68.50
11426;DHT22;5769;47.998;7.788;2023-07-31T11:41:35;23.00;68.00
11426;DHT22;5769;47.998;7.788;2023-07-31T11:44:01;23.00;68.00
11426;DHT22;5769;47.998;7.788;2023-07-31T11:46:30;23.10;68.30
11426;DHT22;5769;47.998;7.788;2023-07-31T11:48:59;23.10;68.50
11426;DHT22;5769;47.998;7.788;2023-07-31T11:51:27;23.00;68.70
11426;DHT22;5769;47.998;7.788;2023-07-31T11:53:57;23.20;68.80
11426;DHT22;5769;47.998;7.788;2023-07-31T11:56:25;23.00;68.80
11426;DHT22;5769;47.998;7.788;2023-07-31T11:58:58;23.00;68.90
11426;DHT22;5769;47.998;7.788;2023-07-31T12:01:26;23.00;69.00
11426;DHT22;5769;47.998;7.788;2023-07-31T12:03:54;23.10;68.60
11426;DHT22;5769;47.998;7.788;2023-07-31T12:06:20;23.00;68.80
11426;DHT22;5769;47.998;7.788;2023-07-31T12:08:47;23.00;68.70
11426;DHT22;5769;47.998;7.788;2023-07-31T12:11:14;23.10;69.20
11426;DHT22;5769;47.998;7.788;2023-07-31T12:13:43;23.10;69.20
11426;DHT22;5769;47.998;7.788;2023-07-31T12:16:11;23.00;69.00
11426;DHT22;5769;47.998;7.788;2023-07-31T12:18:38;23.00;68.90
11426;DHT22;5769;47.998;7.788;2023-07-31T12:21:06;23.00;69.00
11426;DHT22;5769;47.998;7.788;2023-07-31T12:23:35;23.00;69.00
11426;DHT22;5769;47.998;7.788;2023-07-31T12:26:03;23.10;69.20
11426;DHT22;5769;47.998;7.788;2023-07-31T12:28:32;23.00;69.00
11426;DHT22;5769;47.998;7.788;2023-07-31T12:31:01;23.20;69.30
11426;DHT22;5769;47.998;7.788;2023-07-31T12:33:32;23.10;69.10
11426;DHT22;5769;47.998;7.788;2023-07-31T12:36:01;23.20;68.80
11426;DHT22;5769;47.998;7.788;2023-07-31T12:38:28;23.10;68.90
11426;DHT22;5769;47.998;7.788;2023-07-31T12:40:55;23.30;68.70
11426;DHT22;5769;47.998;7.788;2023-07-31T12:43:21;23.10;68.80
11426;DHT22;5769;47.998;7.788;2023-07-31T12:45:49;23.10;69.00
11426;DHT22;5769;47.998;7.788;2023-07-31T12:48:15;23.10;68.50
11426;DHT22;5769;47.998;7.788;2023-07-31T12:50:43;23.20;68.90
11426;DHT22;5769;47.998;7.788;2023-07-31T12:53:10;23.30;68.20
11426;DHT22;5769;47.998;7.788;2023-07-31T12:55:36;23.20;68.20
11426;DHT22;5769;47.998;7.788;2023-07-31T12:58:03;23.20;68.40
11426;DHT22;5769;47.998;7.788;2023-07-31T13:00:30;23.10;68.70
11426;DHT22;5769;47.998;7.788;2023-07-31T13:02:57;23.30;68.80
11426;DHT22;5769;47.998;7.788;2023-07-31T13:05:24;23.30;69.00
11426;DHT22;5769;47.998;7.788;2023-07-31T13:07:52;23.30;69.10
11426;DHT22;5769;47.998;7.788;2023-07-31T13:10:19;23.20;69.10
11426;DHT22;5769;47.998;7.788;2023-07-31T13:12:46;23.30;69.20
11426;DHT22;5769;47.998;7.788;2023-07-31T13:15:13;23.10;68.70
11426;DHT22;5769;47.998;7.788;2023-07-31T13:17:40;23.30;69.20
11426;DHT22;5769;47.998;7.788;2023-07-31T13:20:07;23.10;69.10
11426;DHT22;5769;47.998;7.788;2023-07-31T13:22:34;23.10;68.90
11426;DHT22;5769;47.998;7.788;2023-07-31T13:25:02;23.20;69.10
11426;DHT22;5769;47.998;7.788;2023-07-31T13:27:29;23.30;68.80
11426;DHT22;5769;47.998;7.788;2023-07-31T13:29:56;23.10;68.90
11426;DHT22;5769;47.998;7.788;2023-07-31T13:32:23;23.30;69.20
11426;DHT22;5769;47.998;7.788;2023-07-31T13:34:51;23.10;68.80
11426;DHT22;5769;47.998;7.788;2023-07-31T13:37:17;23.20;69.00
11426;DHT22;5769;47.998;7.788;2023-07-31T13:39:44;23.10;69.00
11426;DHT22;5769;47.998;7.788;2023-07-31T13:42:12;23.10;69.10
11426;DHT22;5769;47.998;7.788;2023-07-31T13:44:39;23.20;69.10
11426;DHT22;5769;47.998;7.788;2023-07-31T13:47:07;23.10;69.20
11426;DHT22;5769;47.998;7.788;2023-07-31T13:49:34;23.10;69.20
11426;DHT22;5769;47.998;7.788;2023-07-31T13:52:01;23.10;69.20
11426;DHT22;5769;47.998;7.788;2023-07-31T13:54:28;23.10;69.40
11426;DHT22;5769;47.998;7.788;2023-07-31T13:56:54;23.30;69.00
11426;DHT22;5769;47.998;7.788;2023-07-31T13:59:22;23.10;69.10
11426;DHT22;5769;47.998;7.788;2023-07-31T14:01:50;23.20;68.40
11426;DHT22;5769;47.998;7.788;2023-07-31T14:04:17;23.10;68.10
11426;DHT22;5769;47.998;7.788;2023-07-31T14:06:43;23.30;68.90
11426;DHT22;5769;47.998;7.788;2023-07-31T14:09:10;23.30;68.50
11426;DHT22;5769;47.998;7.788;2023-07-31T14:11:37;23.20;68.50
11426;DHT22;5769;47.998;7.788;2023-07-31T14:14:03;23.30;68.90
11426;DHT22;5769;47.998;7.788;2023-07-31T14:16:32;23.10;69.00
11426;DHT22;5769;47.998;7.788;2023-07-31T14:18:58;23.10;68.60
11426;DHT22;5769;47.998;7.788;2023-07-31T14:21:25;23.30;69.00
11426;DHT22;5769;47.998;7.788;2023-07-31T14:23:52;23.30;68.90
11426;DHT22;5769;47.998;7.788;2023-07-31T14:26:19;23.20;68.90
11426;DHT22;5769;47.998;7.788;2023-07-31T14:28:46;23.30;68.90
11426;DHT22;5769;47.998;7.788;2023-07-31T14:31:13;23.10;68.90
11426;DHT22;5769;47.998;7.788;2023-07-31T14:33:41;23.10;68.50
11426;DHT22;5769;47.998;7.788;2023-07-31T14:36:07;23.10;68.30
11426;DHT22;5769;47.998;7.788;2023-07-31T14:38:34;23.10;68.60
11426;DHT22;5769;47.998;7.788;2023-07-31T14:41:01;23.20;68.70
11426;DHT22;5769;47.998;7.788;2023-07-31T14:43:27;23.10;68.40
11426;DHT22;5769;47.998;7.788;2023-07-31T14:45:54;23.10;68.40
11426;DHT22;5769;47.998;7.788;2023-07-31T14:48:24;23.20;68.40
11426;DHT22;5769;47.998;7.788;2023-07-31T14:50:52;23.30;68.60
11426;DHT22;5769;47.998;7.788;2023-07-31T14:53:19;23.20;68.60
11426;DHT22;5769;47.998;7.788;2023-07-31T14:55:46;23.10;68.50
11426;DHT22;5769;47.998;7.788;2023-07-31T14:58:13;23.30;68.90
11426;DHT22;5769;47.998;7.788;2023-07-31T15:00:40;23.20;68.90
11426;DHT22;5769;47.998;7.788;2023-07-31T15:03:06;23.30;68.20
11426;DHT22;5769;47.998;7.788;2023-07-31T15:05:33;23.20;68.20
11426;DHT22;5769;47.998;7.788;2023-07-31T15:08:01;23.20;68.00
11426;DHT22;5769;47.998;7.788;2023-07-31T15:10:28;23.40;68.20
11426;DHT22;5769;47.998;7.788;2023-07-31T15:12:55;23.30;67.90
11426;DHT22;5769;47.998;7.788;2023-07-31T15:15:21;23.20;68.10
11426;DHT22;5769;47.998;7.788;2023-07-31T15:17:49;23.30;68.30
11426;DHT22;5769;47.998;7.788;2023-07-31T15:20:15;23.40;68.70
11426;DHT22;5769;47.998;7.788;2023-07-31T15:22:42;23.20;68.60
11426;DHT22;5769;47.998;7.788;2023-07-31T15:25:10;23.40;68.80
11426;DHT22;5769;47.998;7.788;2023-07-31T15:27:37;23.20;68.80
11426;DHT22;5769;47.998;7.788;2023-07-31T15:30:04;23.40;68.40
11426;DHT22;5769;47.998;7.788;2023-07-31T15:32:31;23.30;66.70
11426;DHT22;5769;47.998;7.788;2023-07-31T15:34:58;23.20;66.40
11426;DHT22;5769;47.998;7.788;2023-07-31T15:37:25;23.20;66.40
11426;DHT22;5769;47.998;7.788;2023-07-31T15:39:51;23.20;65.70
11426;DHT22;5769;47.998;7.788;2023-07-31T15:42:19;23.20;66.30
11426;DHT22;5769;47.998;7.788;2023-07-31T15:44:46;23.40;66.30
11426;DHT22;5769;47.998;7.788;2023-07-31T15:47:13;23.40;66.40